Terminal Aerodrome Forecast
Issued by NWS

Home | Current Version | Previous Version | Text Only | Print | Product List | Glossary On
Versions: 1 2 3 4 5 6 7 8 9 10 11 12 13 14 15 16 17 18 19 20 21 22 23
000
FTUS41 KCTP 270339 AAA
TAFLNS
TAF AMD
KLNS 270339Z 2704/2724 09007KT 2SM -SHRA BR BKN003 OVC009
     FM271300 10007KT 2SM -SHRA BR BKN005 OVC012
     FM271700 25007KT 5SM BR BKN018
     FM271900 26008G15KT P6SM BKN030
     FM272100 26008G15KT P6SM BKN035=

USA.gov is the U.S. government's official web portal to all federal, state and local government web resources and services.